Alpha, Michigan
Current Conditions -  °F | °C
As of 1:54 AM on Monday 24 Nov 2014 (Local Time) from KIMT Reporting Station
Light Rain Light Rain  
Wind Chill: 32°   Ceiling: 500
Heat Index: 36°   Visibility: 0.75mi
Dew Point: 36°   Wind: 5mph
Humidity: 100%   Direction: 330°NNW
Pressure: 29.06"   Gusts: NA
Location:  46.04°N, 88.38°W
Report Text: KIMT 240754Z AUTO 33004KT 3/4SM -RA BR VV005 02/02 A2906 RMK AO2 SLP849 P0000 T00220022
Loading
Personal Weather Stations






























Interactive Weather Map New forecast layout! Learn more

10-Day Weather Forecast

Advertisements
Track Severe Weather on mobile